createdAt,value
2023-04-20T00:00:11.085Z,7.75
2023-04-20T00:02:38.718Z,5.38
2023-04-20T00:05:09.234Z,15.45
2023-04-20T00:07:36.535Z,5.75
2023-04-20T00:10:03.836Z,4.72
2023-04-20T00:12:30.545Z,8.38
2023-04-20T00:14:57.165Z,6.38
2023-04-20T00:17:23.814Z,8.48
2023-04-20T00:19:51.109Z,4.72
2023-04-20T00:22:17.701Z,6.18
2023-04-20T00:24:44.304Z,7.78
2023-04-20T00:27:11.852Z,5.35
2023-04-20T00:29:38.464Z,4.03
2023-04-20T00:32:05.374Z,6.38
2023-04-20T00:34:31.939Z,5.65
2023-04-20T00:36:58.546Z,7.13
2023-04-20T00:39:25.468Z,5.18
2023-04-20T00:41:52.060Z,6.53
2023-04-20T00:44:18.634Z,4.75
2023-04-20T00:46:45.517Z,7.80
2023-04-20T00:49:12.300Z,5.45
2023-04-20T00:51:39.106Z,4.85
2023-04-20T00:54:05.926Z,5.00
2023-04-20T00:56:32.741Z,4.68
2023-04-20T00:58:59.508Z,8.95
2023-04-20T01:01:26.158Z,8.05
2023-04-20T01:03:53.902Z,6.45
2023-04-20T01:06:21.240Z,15.65
2023-04-20T01:08:49.236Z,5.20
2023-04-20T01:11:15.963Z,6.68
2023-04-20T01:13:43.226Z,7.53
2023-04-20T01:16:10.018Z,7.20
2023-04-20T01:18:44.554Z,6.93
2023-04-20T01:21:12.662Z,5.68
2023-04-20T01:23:39.394Z,5.15
2023-04-20T01:26:10.442Z,4.97
2023-04-20T01:28:37.478Z,5.60
2023-04-20T01:31:05.448Z,4.10
2023-04-20T01:33:32.220Z,5.38
2023-04-20T01:35:58.916Z,4.75
2023-04-20T01:38:26.071Z,8.05
2023-04-20T01:40:53.740Z,6.72
2023-04-20T01:43:21.476Z,6.90
2023-04-20T01:45:48.076Z,7.93
2023-04-20T01:48:14.674Z,5.07
2023-04-20T01:50:41.315Z,6.03
2023-04-20T01:53:07.941Z,7.95
2023-04-20T01:55:34.578Z,6.20
2023-04-20T01:58:01.124Z,6.35
2023-04-20T02:00:27.815Z,5.47
2023-04-20T02:02:54.604Z,4.60
2023-04-20T02:05:21.435Z,8.38
2023-04-20T02:07:48.147Z,7.43
2023-04-20T02:10:14.716Z,5.28
2023-04-20T02:12:41.343Z,6.88
2023-04-20T02:15:09.396Z,5.95
2023-04-20T02:17:38.651Z,6.28
2023-04-20T02:20:07.274Z,4.68
2023-04-20T02:22:35.198Z,6.78
2023-04-20T02:25:02.617Z,5.22
2023-04-20T02:27:29.201Z,5.25
2023-04-20T02:29:56.384Z,5.70
2023-04-20T02:32:23.066Z,6.40
2023-04-20T02:34:49.637Z,4.93
2023-04-20T02:37:16.233Z,9.32
2023-04-20T02:39:42.966Z,8.00
2023-04-20T02:42:09.568Z,7.22
2023-04-20T02:44:36.274Z,5.47
2023-04-20T02:47:02.839Z,5.60
2023-04-20T02:49:29.446Z,5.55
2023-04-20T02:51:56.038Z,6.60
2023-04-20T02:54:22.634Z,7.63
2023-04-20T02:56:49.192Z,5.43
2023-04-20T02:59:16.024Z,8.25
2023-04-20T03:01:42.751Z,5.80
2023-04-20T03:04:09.620Z,6.30
2023-04-20T03:06:38.650Z,7.95
2023-04-20T03:09:05.523Z,6.40
2023-04-20T03:11:32.138Z,8.98
2023-04-20T03:13:58.694Z,5.90
2023-04-20T03:16:25.605Z,4.75
2023-04-20T03:18:52.253Z,6.70
2023-04-20T03:21:18.841Z,7.10
2023-04-20T03:23:45.441Z,8.18
2023-04-20T03:26:13.591Z,6.43
2023-04-20T03:28:41.366Z,7.65
2023-04-20T03:31:07.956Z,7.70
2023-04-20T03:33:34.537Z,7.38
2023-04-20T03:36:01.129Z,7.45
2023-04-20T03:38:27.725Z,7.20
2023-04-20T03:40:54.407Z,6.00
2023-04-20T03:43:21.020Z,8.57
2023-04-20T03:45:47.726Z,8.95
2023-04-20T03:48:14.342Z,6.57
2023-04-20T03:50:40.958Z,5.65
2023-04-20T03:53:07.541Z,5.57
2023-04-20T03:55:34.094Z,7.28
2023-04-20T03:58:00.662Z,6.85
2023-04-20T04:00:27.269Z,7.47
2023-04-20T04:02:54.064Z,6.43
2023-04-20T04:05:21.152Z,6.70
2023-04-20T04:07:48.125Z,6.32
2023-04-20T04:10:14.754Z,5.18
2023-04-20T04:12:41.476Z,16.15
2023-04-20T04:15:08.640Z,8.95
2023-04-20T04:17:35.550Z,5.93
2023-04-20T04:20:02.138Z,4.88
2023-04-20T04:22:30.429Z,7.97
2023-04-20T04:27:24.802Z,6.68
2023-04-20T04:29:51.405Z,6.20
2023-04-20T04:32:18.009Z,8.38
2023-04-20T04:34:44.570Z,8.70
2023-04-20T04:37:11.891Z,8.15
2023-04-20T04:39:38.800Z,7.50
2023-04-20T04:42:05.678Z,9.07
2023-04-20T04:44:33.296Z,7.25
2023-04-20T04:46:59.885Z,6.30
2023-04-20T04:49:26.752Z,6.30
2023-04-20T04:51:53.408Z,9.10
2023-04-20T04:54:19.985Z,9.65
2023-04-20T04:56:46.552Z,7.53
2023-04-20T04:59:13.146Z,6.70
2023-04-20T05:01:39.780Z,8.00
2023-04-20T05:04:06.612Z,6.80
2023-04-20T05:06:33.419Z,8.95
2023-04-20T05:08:59.997Z,7.53
2023-04-20T05:11:26.586Z,10.93
2023-04-20T05:13:53.185Z,11.30
2023-04-20T05:16:19.769Z,7.43
2023-04-20T05:18:46.374Z,9.98
2023-04-20T05:21:12.944Z,9.32
2023-04-20T05:23:39.637Z,7.43
2023-04-20T05:26:06.560Z,6.60
2023-04-20T05:28:34.606Z,5.53
2023-04-20T05:31:01.789Z,8.93
2023-04-20T05:33:28.368Z,8.55
2023-04-20T05:35:57.984Z,10.13
2023-04-20T05:38:25.489Z,9.73
2023-04-20T05:40:52.228Z,7.00
2023-04-20T05:43:19.320Z,7.32
2023-04-20T05:45:46.718Z,7.97
2023-04-20T05:48:13.339Z,7.45
2023-04-20T05:50:40.371Z,14.02
2023-04-20T05:53:07.000Z,7.22
2023-04-20T05:55:33.550Z,7.90
2023-04-20T05:58:00.677Z,7.80
2023-04-20T06:00:27.267Z,7.95
2023-04-20T06:02:55.037Z,9.02
2023-04-20T06:05:22.134Z,7.13
2023-04-20T06:07:48.766Z,8.82
2023-04-20T06:10:15.375Z,8.20
2023-04-20T06:12:41.976Z,10.35
2023-04-20T06:15:10.865Z,10.10
2023-04-20T06:17:40.704Z,8.55
2023-04-20T06:20:11.739Z,8.65
2023-04-20T06:22:44.207Z,9.57
2023-04-20T06:25:11.283Z,8.98
2023-04-20T06:27:37.890Z,7.95
2023-04-20T06:30:05.616Z,10.32
2023-04-20T06:32:32.269Z,10.63
2023-04-20T06:34:58.863Z,9.90
2023-04-20T06:37:25.443Z,8.45
2023-04-20T06:39:55.075Z,8.15
2023-04-20T06:42:22.442Z,8.73
2023-04-20T06:44:49.090Z,10.63
2023-04-20T06:47:15.838Z,6.18
2023-04-20T06:49:43.448Z,8.68
2023-04-20T06:52:10.211Z,7.68
2023-04-20T06:54:36.801Z,7.40
2023-04-20T06:57:03.381Z,9.20
2023-04-20T06:59:29.984Z,10.13
2023-04-20T07:01:56.673Z,13.40
2023-04-20T07:04:23.304Z,8.73
2023-04-20T07:06:53.813Z,9.75
2023-04-20T07:09:21.050Z,8.00
2023-04-20T07:11:47.612Z,10.93
2023-04-20T07:14:14.453Z,10.55
2023-04-20T07:16:41.110Z,7.72
2023-04-20T07:19:07.840Z,8.63
2023-04-20T07:21:35.612Z,9.45
2023-04-20T07:24:02.589Z,11.32
2023-04-20T07:26:29.145Z,11.88
2023-04-20T07:28:55.774Z,10.00
2023-04-20T07:31:22.431Z,9.68
2023-04-20T07:33:49.062Z,9.02
2023-04-20T07:36:15.626Z,9.02
2023-04-20T07:38:42.196Z,13.25
2023-04-20T07:41:10.252Z,8.23
2023-04-20T07:43:37.430Z,10.80
2023-04-20T07:46:04.230Z,10.85
2023-04-20T07:48:31.900Z,9.23
2023-04-20T07:50:58.463Z,9.30
2023-04-20T07:53:25.042Z,9.40
2023-04-20T07:55:51.607Z,8.02
2023-04-20T07:58:18.533Z,7.78
2023-04-20T08:00:48.117Z,8.73
2023-04-20T08:03:15.398Z,9.02
2023-04-20T08:05:42.219Z,7.85
2023-04-20T08:08:09.063Z,11.95
2023-04-20T08:10:35.955Z,9.07
2023-04-20T08:13:02.626Z,8.65
2023-04-20T08:15:29.502Z,8.43
2023-04-20T08:17:56.598Z,9.65
2023-04-20T08:20:23.186Z,8.20
2023-04-20T08:22:50.725Z,12.60
2023-04-20T08:25:17.513Z,9.03
2023-04-20T08:27:44.198Z,8.75
2023-04-20T08:30:11.527Z,10.45
2023-04-20T08:32:38.216Z,8.43
2023-04-20T08:35:05.328Z,8.55
2023-04-20T08:37:33.105Z,10.95
2023-04-20T08:39:59.833Z,10.88
2023-04-20T08:42:26.439Z,8.82
2023-04-20T08:44:53.512Z,7.20
2023-04-20T08:47:21.404Z,6.95
2023-04-20T08:49:49.149Z,7.40
2023-04-20T08:52:15.841Z,7.85
2023-04-20T08:54:55.368Z,7.13
2023-04-20T08:57:23.880Z,6.78
2023-04-20T08:59:50.728Z,5.68
2023-04-20T09:02:18.052Z,6.18
2023-04-20T09:04:48.978Z,9.23
2023-04-20T09:07:22.039Z,6.55
2023-04-20T09:09:56.360Z,5.65
2023-04-20T09:12:23.183Z,7.25
2023-04-20T09:14:49.863Z,6.97
2023-04-20T09:17:18.044Z,5.78
2023-04-20T09:19:46.206Z,5.03
2023-04-20T09:22:12.874Z,6.07
2023-04-20T09:24:41.185Z,6.10
2023-04-20T09:27:18.194Z,8.82
2023-04-20T09:29:57.687Z,9.00
2023-04-20T09:32:25.820Z,5.03
2023-04-20T09:34:52.491Z,4.75
2023-04-20T09:37:19.150Z,7.50
2023-04-20T09:39:46.085Z,5.30
2023-04-20T09:42:13.869Z,8.43
2023-04-20T09:44:41.064Z,6.40
2023-04-20T09:47:08.862Z,6.32
2023-04-20T09:49:35.659Z,6.07
2023-04-20T09:52:03.654Z,6.22
2023-04-20T09:54:31.490Z,5.38
2023-04-20T09:57:02.097Z,6.13
2023-04-20T09:59:29.804Z,6.57
2023-04-20T10:01:56.618Z,7.40
2023-04-20T10:04:23.588Z,7.07
2023-04-20T10:07:03.177Z,5.22
2023-04-20T10:09:31.402Z,4.97
2023-04-20T10:12:09.218Z,5.47
2023-04-20T10:14:35.973Z,6.30
2023-04-20T10:17:07.635Z,8.63
2023-04-20T10:19:40.782Z,6.88
2023-04-20T10:22:08.955Z,6.78
2023-04-20T10:24:38.032Z,7.45
2023-04-20T10:27:16.283Z,7.18
2023-04-20T10:29:42.869Z,7.28
2023-04-20T10:32:09.425Z,5.82
2023-04-20T10:34:36.876Z,8.45
2023-04-20T10:37:11.128Z,7.07
2023-04-20T10:39:44.851Z,7.10
2023-04-20T10:42:11.650Z,5.72
2023-04-20T10:44:54.599Z,8.18
2023-04-20T10:47:29.821Z,7.38
2023-04-20T10:50:09.287Z,7.53
2023-04-20T10:52:37.109Z,7.95
2023-04-20T10:55:04.900Z,6.57
2023-04-20T10:57:31.620Z,6.65
2023-04-20T10:59:58.259Z,5.53
2023-04-20T11:02:25.034Z,7.32
2023-04-20T11:04:53.309Z,6.28
2023-04-20T11:07:20.971Z,5.97
2023-04-20T11:09:55.305Z,7.60
2023-04-20T11:12:22.026Z,7.35
2023-04-20T11:14:58.758Z,7.57
2023-04-20T11:17:37.410Z,6.90
2023-04-20T11:20:14.378Z,5.70
2023-04-20T11:22:41.940Z,8.38
2023-04-20T11:25:10.833Z,6.93
2023-04-20T11:27:38.669Z,6.05
2023-04-20T11:30:07.909Z,6.55
2023-04-20T11:32:36.131Z,6.07
2023-04-20T11:35:08.735Z,6.00
2023-04-20T11:37:47.386Z,6.88
2023-04-20T11:40:15.209Z,7.38
2023-04-20T11:42:41.914Z,6.38
2023-04-20T11:45:08.863Z,6.50
2023-04-20T11:47:35.500Z,5.85
2023-04-20T11:50:02.100Z,6.63
2023-04-20T11:52:28.663Z,7.60
2023-04-20T11:54:55.319Z,5.85
2023-04-20T11:57:23.961Z,6.00
2023-04-20T11:59:50.632Z,7.13
2023-04-20T12:02:17.376Z,6.75
2023-04-20T12:04:44.282Z,7.78
2023-04-20T12:07:11.280Z,7.15
2023-04-20T12:09:38.444Z,6.90
2023-04-20T12:12:05.769Z,5.55
2023-04-20T12:14:35.844Z,7.05
2023-04-20T12:17:04.047Z,6.53
2023-04-20T12:19:31.283Z,7.25
2023-04-20T12:21:57.865Z,6.32
2023-04-20T12:24:24.514Z,7.60
2023-04-20T12:26:51.680Z,7.45
2023-04-20T12:29:18.635Z,6.60
2023-04-20T12:31:45.405Z,9.00
2023-04-20T12:34:12.531Z,6.78
2023-04-20T12:36:39.276Z,8.00
2023-04-20T12:39:05.915Z,8.23
2023-04-20T12:41:33.389Z,7.65
2023-04-20T12:44:00.751Z,6.10
2023-04-20T12:46:28.852Z,8.90
2023-04-20T12:48:56.227Z,8.27
2023-04-20T12:51:22.829Z,7.60
2023-04-20T12:53:50.731Z,8.43
2023-04-20T12:56:17.298Z,8.63
2023-04-20T12:58:44.294Z,6.43
2023-04-20T13:01:10.900Z,7.72
2023-04-20T13:03:37.758Z,7.53
2023-04-20T13:06:05.326Z,9.10
2023-04-20T13:08:31.904Z,6.68
2023-04-20T13:10:58.501Z,7.30
2023-04-20T13:13:25.102Z,7.15
2023-04-20T13:15:53.961Z,6.45
2023-04-20T13:18:21.658Z,6.40
2023-04-20T13:20:48.234Z,6.82
2023-04-20T13:23:15.459Z,6.75
2023-04-20T13:25:42.241Z,6.45
2023-04-20T13:28:08.821Z,9.07
2023-04-20T13:30:35.586Z,6.80
2023-04-20T13:33:02.275Z,6.70
2023-04-20T13:35:29.083Z,7.55
2023-04-20T13:37:55.730Z,5.80
2023-04-20T13:40:22.379Z,5.57
2023-04-20T13:42:49.791Z,7.10
2023-04-20T13:45:16.439Z,6.55
2023-04-20T13:47:43.129Z,6.90
2023-04-20T13:50:10.490Z,6.90
2023-04-20T13:52:37.228Z,5.47
2023-04-20T13:55:05.182Z,4.90
2023-04-20T13:57:31.809Z,6.85
2023-04-20T13:59:59.198Z,5.40
2023-04-20T14:02:26.001Z,6.32
2023-04-20T14:04:53.014Z,6.30
2023-04-20T14:07:19.648Z,8.20
2023-04-20T14:09:46.390Z,5.57
2023-04-20T14:12:13.576Z,5.25
2023-04-20T14:14:40.713Z,4.57
2023-04-20T14:17:07.374Z,4.57
2023-04-20T14:19:33.923Z,6.60
2023-04-20T14:22:00.514Z,6.28
2023-04-20T14:24:27.519Z,4.68
2023-04-20T14:26:54.349Z,5.07
2023-04-20T14:29:21.179Z,5.05
2023-04-20T14:31:47.790Z,4.80
2023-04-20T14:34:14.530Z,5.40
2023-04-20T14:36:41.145Z,6.75
2023-04-20T14:39:07.760Z,5.10
2023-04-20T14:41:34.574Z,6.43
2023-04-20T14:44:01.274Z,5.28
2023-04-20T14:46:27.981Z,5.00
2023-04-20T14:48:54.660Z,6.32
2023-04-20T14:51:21.293Z,7.00
2023-04-20T14:53:47.890Z,5.45
2023-04-20T14:56:14.517Z,6.28
2023-04-20T14:58:42.433Z,6.30
2023-04-20T15:01:09.101Z,5.20
2023-04-20T15:03:35.940Z,5.70
2023-04-20T15:06:03.635Z,6.30
2023-04-20T15:08:30.672Z,5.70
2023-04-20T15:10:57.421Z,6.75
2023-04-20T15:13:24.318Z,5.63
2023-04-20T15:15:52.622Z,6.68
2023-04-20T15:18:20.874Z,7.53
2023-04-20T15:20:47.501Z,7.30
2023-04-20T15:23:14.061Z,6.15
2023-04-20T15:25:40.656Z,6.22
2023-04-20T15:28:07.215Z,6.50
2023-04-20T15:30:33.930Z,7.28
2023-04-20T15:33:04.827Z,6.20
2023-04-20T15:35:32.148Z,8.88
2023-04-20T15:37:58.782Z,6.72
2023-04-20T15:40:27.259Z,6.78
2023-04-20T15:47:49.715Z,9.77
2023-04-20T15:50:16.745Z,6.97
2023-04-20T15:52:43.860Z,7.45
2023-04-20T15:55:11.662Z,7.15
2023-04-20T15:57:38.246Z,5.90
2023-04-20T16:00:05.388Z,11.02
2023-04-20T16:02:32.103Z,7.13
2023-04-20T16:04:59.012Z,7.90
2023-04-20T16:07:25.907Z,8.18
2023-04-20T16:09:52.531Z,6.82
2023-04-20T16:12:19.154Z,6.88
2023-04-20T16:14:45.803Z,6.90
2023-04-20T16:17:12.381Z,7.63
2023-04-20T16:19:38.960Z,7.35
2023-04-20T16:22:05.640Z,8.52
2023-04-20T16:24:32.221Z,10.68
2023-04-20T16:27:01.127Z,10.45
2023-04-20T16:29:28.442Z,10.70
2023-04-20T16:31:55.115Z,11.27
2023-04-20T16:34:21.773Z,11.07
2023-04-20T16:36:50.186Z,11.10
2023-04-20T16:39:17.760Z,12.20
2023-04-20T16:41:44.615Z,10.83
2023-04-20T16:44:13.686Z,8.85
2023-04-20T16:46:41.749Z,9.68
2023-04-20T16:49:09.144Z,10.52
2023-04-20T16:51:35.865Z,11.38
2023-04-20T16:54:02.464Z,11.90
2023-04-20T16:56:29.039Z,11.57
2023-04-20T16:58:55.686Z,10.93
2023-04-20T17:01:22.473Z,10.60
2023-04-20T17:03:49.252Z,11.13
2023-04-20T17:06:16.057Z,13.63
2023-04-20T17:08:42.713Z,11.27
2023-04-20T17:11:09.329Z,11.15
2023-04-20T17:13:35.938Z,12.75
2023-04-20T17:16:02.554Z,14.20
2023-04-20T17:18:29.243Z,13.15
2023-04-20T17:20:57.281Z,12.40
2023-04-20T17:23:24.065Z,12.13
2023-04-20T17:25:51.379Z,9.73
2023-04-20T17:28:18.015Z,9.70
2023-04-20T17:30:44.607Z,10.65
2023-04-20T17:33:14.269Z,9.52
2023-04-20T17:35:40.917Z,10.30
2023-04-20T17:38:07.574Z,8.27
2023-04-20T17:40:34.332Z,9.25
2023-04-20T17:43:01.681Z,10.48
2023-04-20T17:45:28.313Z,8.85
2023-04-20T17:47:54.994Z,7.80
2023-04-20T17:50:22.683Z,8.60
2023-04-20T17:52:49.555Z,9.38
2023-04-20T17:55:16.191Z,7.97
2023-04-20T17:57:42.799Z,9.15
2023-04-20T18:00:11.751Z,6.05
2023-04-20T18:02:39.090Z,6.80
2023-04-20T18:05:06.533Z,7.63
2023-04-20T18:07:33.356Z,9.30
2023-04-20T18:09:59.922Z,8.18
2023-04-20T18:12:26.831Z,12.18
2023-04-20T18:14:53.502Z,9.98
2023-04-20T18:17:20.085Z,11.98
2023-04-20T18:19:46.726Z,10.68
2023-04-20T18:22:13.298Z,12.98
2023-04-20T18:24:39.978Z,12.60
2023-04-20T18:27:06.667Z,13.52
2023-04-20T18:29:33.285Z,14.48
2023-04-20T18:32:01.307Z,12.80
2023-04-20T18:34:31.057Z,12.82
2023-04-20T18:36:58.432Z,14.05
2023-04-20T18:39:25.284Z,13.80
2023-04-20T18:41:51.856Z,16.38
2023-04-20T18:44:18.572Z,16.20
2023-04-20T18:46:45.439Z,15.55
2023-04-20T18:49:12.163Z,15.52
2023-04-20T18:51:38.802Z,16.27
2023-04-20T18:54:05.566Z,20.42
2023-04-20T18:56:32.277Z,15.73
2023-04-20T18:58:59.603Z,16.13
2023-04-20T19:01:27.281Z,19.38
2023-04-20T19:03:54.225Z,19.92
2023-04-20T19:06:20.917Z,18.92
2023-04-20T19:08:47.515Z,19.50
2023-04-20T19:11:14.097Z,20.90
2023-04-20T19:13:44.564Z,18.92
2023-04-20T19:16:12.336Z,21.70
2023-04-20T19:18:39.714Z,21.60
2023-04-20T19:21:06.902Z,19.02
2023-04-20T19:23:35.673Z,20.60
2023-04-20T19:26:02.842Z,21.92
2023-04-20T19:28:29.896Z,19.10
2023-04-20T19:30:56.963Z,20.50
2023-04-20T19:33:23.558Z,22.02
2023-04-20T19:35:53.493Z,22.75
2023-04-20T19:38:21.241Z,21.98
2023-04-20T19:40:48.543Z,21.42
2023-04-20T19:43:16.951Z,19.50
2023-04-20T19:48:10.239Z,24.00
2023-04-20T19:50:36.858Z,26.58
2023-04-20T19:53:03.521Z,19.60
2023-04-20T19:55:30.492Z,19.98
2023-04-20T19:57:57.075Z,21.55
2023-04-20T20:00:23.763Z,19.83
2023-04-20T20:02:50.564Z,18.67
2023-04-20T20:05:17.579Z,16.90
2023-04-20T20:07:44.481Z,18.55
2023-04-20T20:10:11.158Z,24.30
2023-04-20T20:12:37.761Z,18.33
2023-04-20T20:15:04.868Z,20.17
2023-04-20T20:17:31.675Z,19.77
2023-04-20T20:19:58.312Z,16.88
2023-04-20T20:22:25.052Z,19.40
2023-04-20T20:24:54.181Z,20.83
2023-04-20T20:27:21.320Z,17.95
2023-04-20T20:29:47.929Z,19.67
2023-04-20T20:32:14.589Z,20.35
2023-04-20T20:34:41.398Z,20.65
2023-04-20T20:37:10.352Z,20.17
2023-04-20T20:39:37.418Z,19.70
2023-04-20T20:42:04.809Z,18.42
2023-04-20T20:47:06.856Z,17.80
2023-04-20T20:49:33.762Z,21.48
2023-04-20T20:52:02.080Z,18.50
2023-04-20T20:54:28.716Z,20.23
2023-04-20T20:56:55.285Z,17.13
2023-04-20T20:59:21.859Z,19.08
2023-04-20T21:01:48.489Z,16.55
2023-04-20T21:04:15.265Z,15.55
2023-04-20T21:06:41.880Z,16.65
2023-04-20T21:09:08.483Z,19.85
2023-04-20T21:11:35.056Z,17.00
2023-04-20T21:14:02.904Z,16.20
2023-04-20T21:16:29.612Z,17.77
2023-04-20T21:18:56.346Z,18.33
2023-04-20T21:21:23.113Z,20.65
2023-04-20T21:23:50.206Z,17.33
2023-04-20T21:26:16.859Z,19.00
